Time;durP1;ratioP1;P1;durP2;ratioP2;P2;SDS_P1;SDS_P2;PMS_P1;PMS_P2;Temp;Humidity;BMP_temperature;BMP_pressure;BME280_temperature;BME280_humidity;BME280_pressure;Samples;Min_cycle;Max_cycle;Signal;HPM_P1;HPM_P2
2022/02/08 00:00:04;;;;;;;0.00;0.00;;;7.60;99.90;;;;;;5032963;28;20117;-80
2022/02/08 00:02:33;;;;;;;0.10;0.10;;;7.60;99.90;;;;;;5032772;28;20108;-80
2022/02/08 00:04:59;;;;;;;0.52;0.52;;;7.50;99.90;;;;;;5033410;28;20033;-71
2022/02/08 00:07:29;;;;;;;0.25;0.25;;;7.50;99.90;;;;;;5032625;28;20056;-80
2022/02/08 00:09:55;;;;;;;0.00;0.00;;;7.50;99.90;;;;;;5033036;28;20022;-72
2022/02/08 00:12:21;;;;;;;0.00;0.00;;;7.50;99.90;;;;;;5032862;28;20029;-71
2022/02/08 00:14:48;;;;;;;0.00;0.00;;;7.60;99.90;;;;;;5032938;28;20104;-72
2022/02/08 00:17:14;;;;;;;0.00;0.00;;;7.60;99.90;;;;;;5032534;28;20067;-80
2022/02/08 00:19:39;;;;;;;0.38;0.38;;;7.60;99.90;;;;;;5032562;28;20396;-71
2022/02/08 00:22:05;;;;;;;0.28;0.28;;;7.50;99.90;;;;;;5033056;28;20037;-71
2022/02/08 00:24:32;;;;;;;0.00;0.00;;;7.50;99.90;;;;;;5032325;28;20378;-71
2022/02/08 00:26:58;;;;;;;0.03;0.03;;;7.50;99.90;;;;;;5033030;28;20503;-71
2022/02/08 00:29:24;;;;;;;0.28;0.28;;;7.40;99.90;;;;;;5032884;28;20064;-72
2022/02/08 00:31:50;;;;;;;0.00;0.00;;;7.40;99.90;;;;;;5032896;28;20497;-71
2022/02/08 00:34:16;;;;;;;0.00;0.00;;;7.40;99.90;;;;;;5031529;28;20374;-71
2022/02/08 00:36:41;;;;;;;0.00;0.00;;;7.40;99.90;;;;;;5033954;28;20013;-76
2022/02/08 00:39:08;;;;;;;0.00;0.00;;;7.40;99.90;;;;;;5043660;28;20035;-71
2022/02/08 00:41:36;;;;;;;0.00;0.00;;;7.30;99.90;;;;;;5032746;28;20032;-71
2022/02/08 00:44:15;;;;;;;0.00;0.00;;;7.30;99.90;;;;;;5032589;28;20431;-71
2022/02/08 00:46:58;;;;;;;0.10;0.10;;;7.30;99.90;;;;;;5024417;28;20392;-79
2022/02/08 00:49:31;;;;;;;0.00;0.00;;;7.30;99.90;;;;;;5038358;28;20029;-75
2022/02/08 00:52:05;;;;;;;0.10;0.10;;;7.20;99.90;;;;;;5032575;28;20108;-71
2022/02/08 00:54:30;;;;;;;0.00;0.00;;;7.20;99.90;;;;;;5034319;28;20029;-80
2022/02/08 00:56:56;;;;;;;0.00;0.00;;;7.20;99.90;;;;;;5042040;28;20025;-71
2022/02/08 00:59:22;;;;;;;0.00;0.00;;;7.20;99.90;;;;;;5036474;28;20037;-80
2022/02/08 01:01:47;;;;;;;0.20;0.20;;;7.20;99.90;;;;;;5034985;28;20463;-71
2022/02/08 01:04:13;;;;;;;0.00;0.00;;;7.20;99.90;;;;;;5035871;28;20017;-71
2022/02/08 01:06:41;;;;;;;0.00;0.00;;;7.20;99.90;;;;;;5036244;28;20041;-71
2022/02/08 01:11:35;;;;;;;0.85;0.28;;;7.20;99.90;;;;;;5036096;28;20044;-71
2022/02/08 01:14:01;;;;;;;0.05;0.05;;;7.10;99.90;;;;;;5035821;28;20026;-71
2022/02/08 01:16:27;;;;;;;0.10;0.10;;;7.10;99.90;;;;;;5036054;28;20087;-80
2022/02/08 01:18:55;;;;;;;0.00;0.00;;;7.10;99.90;;;;;;5035792;28;20484;-71
2022/02/08 01:21:23;;;;;;;0.00;0.00;;;7.10;99.90;;;;;;5036114;28;20025;-71
2022/02/08 01:23:48;;;;;;;0.00;0.00;;;7.00;99.90;;;;;;5036093;28;20067;-71
2022/02/08 01:26:16;;;;;;;0.00;0.00;;;7.10;99.90;;;;;;5035539;28;20516;-71
2022/02/08 01:28:59;;;;;;;0.00;0.00;;;7.10;99.90;;;;;;5035278;28;20053;-71
2022/02/08 01:31:25;;;;;;;0.00;0.00;;;7.00;99.90;;;;;;5035937;28;20029;-71
2022/02/08 01:42:20;;;;;;;0.00;0.00;;;6.90;99.90;;;;;;5036100;28;20080;-80
2022/02/08 01:45:02;;;;;;;0.20;0.10;;;7.00;99.90;;;;;;5034986;28;20033;-80
2022/02/08 01:47:31;;;;;;;0.43;0.43;;;6.90;99.90;;;;;;5035120;28;20021;-71
2022/02/08 01:50:10;;;;;;;0.00;0.00;;;6.90;99.90;;;;;;5035227;28;20017;-71
2022/02/08 01:52:37;;;;;;;0.00;0.00;;;6.90;99.90;;;;;;5035353;28;20076;-71
2022/02/08 01:55:04;;;;;;;0.00;0.00;;;6.90;99.90;;;;;;5034849;28;20492;-71
2022/02/08 01:57:30;;;;;;;0.00;0.00;;;6.80;99.90;;;;;;5035926;28;20113;-80
2022/02/08 01:59:55;;;;;;;0.00;0.00;;;6.80;99.90;;;;;;5035900;28;20061;-80
2022/02/08 02:02:21;;;;;;;0.00;0.00;;;6.80;99.90;;;;;;5035036;28;20112;-80
2022/02/08 02:04:50;;;;;;;0.00;0.00;;;6.80;99.90;;;;;;5034853;28;20033;-80
2022/02/08 02:07:16;;;;;;;0.22;0.22;;;6.80;99.90;;;;;;5034966;28;20037;-71
2022/02/08 02:09:46;;;;;;;0.20;0.17;;;6.80;99.90;;;;;;5035386;28;20400;-71
2022/02/08 02:12:13;;;;;;;0.10;0.10;;;6.90;99.90;;;;;;5035448;28;20476;-81
2022/02/08 02:14:40;;;;;;;0.00;0.00;;;6.90;99.90;;;;;;5036884;28;20018;-71
2022/02/08 02:17:08;;;;;;;0.00;0.00;;;6.80;99.90;;;;;;5034469;28;20511;-77
2022/02/08 02:19:34;;;;;;;0.00;0.00;;;6.90;99.90;;;;;;5034141;28;20017;-72
2022/02/08 02:22:02;;;;;;;0.00;0.00;;;6.90;99.90;;;;;;5035257;28;20096;-80
2022/02/08 02:24:28;;;;;;;0.00;0.00;;;6.80;99.90;;;;;;5026888;28;20433;-80
2022/02/08 02:26:57;;;;;;;2.83;1.10;;;6.70;99.90;;;;;;5015229;28;20069;-71
2022/02/08 02:29:23;;;;;;;0.00;0.00;;;6.70;99.90;;;;;;5014766;28;20040;-80
2022/02/08 02:31:49;;;;;;;0.15;0.15;;;6.70;99.90;;;;;;5017343;28;20059;-71
2022/02/08 02:34:17;;;;;;;0.00;0.00;;;6.60;99.90;;;;;;5014957;28;20045;-71
2022/02/08 02:36:43;;;;;;;0.00;0.00;;;6.60;99.90;;;;;;5021141;28;20021;-80
2022/02/08 02:39:09;;;;;;;0.00;0.00;;;6.60;99.90;;;;;;5034154;28;20034;-71
2022/02/08 02:41:40;;;;;;;0.00;0.00;;;6.50;99.90;;;;;;5036398;28;20026;-71
2022/02/08 02:44:08;;;;;;;0.15;0.15;;;6.50;99.90;;;;;;5034435;28;20013;-80
2022/02/08 02:46:34;;;;;;;0.00;0.00;;;6.40;99.90;;;;;;5034403;28;20025;-71
2022/02/08 02:49:00;;;;;;;0.00;0.00;;;6.40;99.90;;;;;;5033813;28;20469;-71
2022/02/08 02:51:26;;;;;;;0.00;0.00;;;6.40;99.90;;;;;;5036520;28;20095;-71
2022/02/08 02:53:52;;;;;;;0.00;0.00;;;6.30;99.90;;;;;;5034004;28;20033;-80
2022/02/08 02:56:19;;;;;;;0.00;0.00;;;6.40;99.90;;;;;;5033539;28;20022;-71
2022/02/08 02:58:44;;;;;;;0.00;0.00;;;6.40;99.90;;;;;;5034470;28;20026;-73
2022/02/08 03:20:11;;;;;;;0.00;0.00;;;6.20;99.90;;;;;;5013430;28;20022;-80
2022/02/08 03:22:37;;;;;;;0.00;0.00;;;6.20;99.90;;;;;;5032942;28;20037;-71
2022/02/08 03:25:03;;;;;;;3.03;0.70;;;6.10;99.90;;;;;;5033557;28;20535;-71
2022/02/08 03:27:29;;;;;;;0.40;0.35;;;6.10;99.90;;;;;;5033595;28;20029;-71
2022/02/08 03:29:54;;;;;;;0.00;0.00;;;6.10;99.90;;;;;;5033297;28;20105;-71
2022/02/08 03:32:22;;;;;;;0.52;0.52;;;6.10;99.90;;;;;;5034872;28;20029;-71
2022/02/08 03:34:48;;;;;;;0.90;0.65;;;6.00;99.90;;;;;;5032923;28;20029;-71
2022/02/08 03:37:14;;;;;;;0.00;0.00;;;5.90;99.90;;;;;;5033309;28;20029;-71
2022/02/08 03:39:42;;;;;;;0.00;0.00;;;5.80;99.90;;;;;;5033280;28;20013;-71
2022/02/08 03:42:17;;;;;;;1.85;1.15;;;5.80;99.90;;;;;;5033657;28;20152;-71
2022/02/08 03:44:47;;;;;;;0.00;0.00;;;5.70;99.90;;;;;;5032891;28;20025;-71
2022/02/08 03:47:13;;;;;;;0.08;0.08;;;5.70;99.90;;;;;;5033120;28;20029;-80
2022/02/08 03:49:40;;;;;;;0.00;0.00;;;5.80;99.90;;;;;;5033185;28;20045;-80
2022/02/08 03:52:06;;;;;;;0.05;0.05;;;5.70;99.90;;;;;;5032006;28;20030;-71
2022/02/08 03:54:35;;;;;;;2.45;1.35;;;5.60;99.90;;;;;;5032789;28;20400;-80
2022/02/08 03:57:03;;;;;;;1.55;0.22;;;5.50;99.90;;;;;;5033467;28;20076;-71
2022/02/08 03:59:29;;;;;;;0.00;0.00;;;5.40;99.90;;;;;;5032538;28;20028;-71
2022/02/08 04:07:14;;;;;;;0.10;0.10;;;5.40;99.90;;;;;;5033319;28;20060;-71
2022/02/08 04:09:40;;;;;;;0.00;0.00;;;5.40;99.90;;;;;;5033288;28;20030;-71
2022/02/08 04:12:13;;;;;;;0.25;0.25;;;5.30;99.90;;;;;;5034874;28;20518;-81
2022/02/08 04:15:30;;;;;;;0.00;0.00;;;5.30;99.90;;;;;;5032109;28;20060;-80
2022/02/08 04:31:25;;;;;;;0.00;0.00;;;5.20;99.90;;;;;;5029689;28;20041;-71
2022/02/08 04:47:07;;;;;;;0.00;0.00;;;5.10;99.90;;;;;;5032564;28;20163;-71
2022/02/08 04:49:32;;;;;;;0.00;0.00;;;5.10;99.90;;;;;;5032132;28;20026;-80
2022/02/08 04:52:03;;;;;;;0.00;0.00;;;5.10;99.90;;;;;;5032392;28;20029;-80
2022/02/08 05:47:43;;;;;;;0.00;0.00;;;4.70;99.90;;;;;;5035204;28;20025;-71
2022/02/08 05:50:23;;;;;;;0.32;0.28;;;4.60;99.90;;;;;;5041317;28;20014;-79
2022/02/08 05:53:05;;;;;;;0.00;0.00;;;4.60;99.90;;;;;;5035109;28;20034;-71
2022/02/08 05:55:34;;;;;;;0.82;0.05;;;4.50;99.90;;;;;;5035491;28;20017;-71
2022/02/08 05:57:59;;;;;;;0.00;0.00;;;4.50;99.90;;;;;;5034239;28;20392;-80
2022/02/08 06:00:29;;;;;;;0.00;0.00;;;4.50;99.90;;;;;;5035132;28;20040;-71
2022/02/08 06:03:02;;;;;;;0.00;0.00;;;4.50;99.90;;;;;;5041455;28;20014;-81
2022/02/08 06:05:27;;;;;;;;;;;4.60;99.90;;;;;;5034856;28;20022;-72
2022/02/08 06:07:53;;;;;;;0.45;0.45;;;4.50;99.90;;;;;;5034425;28;19912;-81
2022/02/08 06:10:19;;;;;;;0.00;0.00;;;4.60;99.90;;;;;;5035161;28;20043;-80
2022/02/08 06:12:47;;;;;;;0.20;0.20;;;4.60;99.90;;;;;;5032151;28;20087;-71
2022/02/08 06:15:15;;;;;;;0.00;0.00;;;4.50;99.90;;;;;;5035063;28;20021;-80
2022/02/08 06:17:41;;;;;;;0.10;0.10;;;4.50;99.90;;;;;;5034363;28;20029;-80
2022/02/08 06:20:08;;;;;;;0.13;0.13;;;4.50;99.90;;;;;;5034994;28;20029;-71
2022/02/08 06:22:35;;;;;;;0.00;0.00;;;4.50;99.90;;;;;;5034861;28;20041;-71
2022/02/08 06:25:01;;;;;;;0.15;0.15;;;4.50;99.90;;;;;;5030375;28;20099;-71
2022/02/08 06:27:31;;;;;;;0.00;0.00;;;4.50;99.90;;;;;;5020469;28;20038;-71
2022/02/08 06:29:58;;;;;;;0.00;0.00;;;4.40;99.90;;;;;;5015228;28;20022;-71
2022/02/08 06:32:24;;;;;;;0.05;0.05;;;4.30;99.90;;;;;;5016036;28;20057;-80
2022/02/08 06:34:50;;;;;;;0.00;0.00;;;4.20;99.90;;;;;;5035110;28;20021;-81
2022/02/08 06:37:19;;;;;;;0.00;0.00;;;4.20;99.90;;;;;;5033796;28;20104;-71
2022/02/08 06:39:45;;;;;;;0.00;0.00;;;4.10;99.90;;;;;;5033447;28;20045;-80
2022/02/08 06:42:11;;;;;;;0.00;0.00;;;4.10;99.90;;;;;;5032215;28;20057;-80
2022/02/08 06:44:37;;;;;;;0.00;0.00;;;4.10;99.90;;;;;;5034553;28;20029;-72
2022/02/08 06:47:03;;;;;;;0.00;0.00;;;4.10;99.90;;;;;;5032428;28;20087;-81
2022/02/08 06:49:29;;;;;;;0.00;0.00;;;4.20;99.90;;;;;;5033745;28;20026;-80
2022/02/08 06:51:55;;;;;;;0.10;0.10;;;4.20;99.90;;;;;;5033707;28;20034;-71
2022/02/08 06:54:20;;;;;;;0.13;0.13;;;4.30;99.90;;;;;;5032819;28;20074;-72
2022/02/08 06:56:47;;;;;;;0.00;0.00;;;4.20;99.90;;;;;;5033623;28;20061;-80
2022/02/08 06:59:16;;;;;;;0.00;0.00;;;4.30;99.90;;;;;;5033732;28;20017;-79
2022/02/08 07:01:41;;;;;;;0.13;0.13;;;4.30;99.90;;;;;;5033439;28;20067;-72
2022/02/08 07:04:10;;;;;;;0.15;0.15;;;4.30;99.90;;;;;;5033273;28;20057;-71
2022/02/08 07:06:36;;;;;;;2.35;1.50;;;4.30;99.90;;;;;;5027991;28;20033;-78
2022/02/08 07:09:01;;;;;;;0.00;0.00;;;4.40;99.90;;;;;;5027896;28;20022;-71
2022/02/08 07:11:27;;;;;;;0.00;0.00;;;4.40;99.90;;;;;;5032021;28;20033;-80
2022/02/08 07:13:53;;;;;;;0.00;0.00;;;4.40;99.90;;;;;;5031714;28;20050;-72
2022/02/08 07:16:20;;;;;;;0.25;0.25;;;4.40;99.90;;;;;;5032153;28;20025;-71
2022/02/08 07:18:46;;;;;;;0.00;0.00;;;4.40;99.90;;;;;;5031302;28;20028;-81
2022/02/08 07:21:11;;;;;;;0.00;0.00;;;4.40;99.90;;;;;;5031920;28;20033;-71
2022/02/08 07:23:37;;;;;;;0.00;0.00;;;4.40;99.90;;;;;;5030779;28;20049;-80
2022/02/08 07:26:04;;;;;;;0.10;0.10;;;4.40;99.90;;;;;;5020517;28;20607;-81
2022/02/08 07:28:31;;;;;;;0.00;0.00;;;4.50;99.90;;;;;;5011976;28;20429;-80
2022/02/08 07:31:06;;;;;;;4.15;1.00;;;4.60;99.90;;;;;;5012092;28;20025;-80
2022/02/08 07:33:33;;;;;;;9.63;1.15;;;4.60;99.90;;;;;;5012630;28;20516;-71
2022/02/08 07:36:10;;;;;;;0.00;0.00;;;4.60;99.90;;;;;;5012259;28;20028;-71
2022/02/08 07:38:38;;;;;;;0.00;0.00;;;4.60;99.90;;;;;;5031780;28;20023;-80
2022/02/08 07:43:31;;;;;;;0.40;0.40;;;4.70;99.90;;;;;;5031284;28;20037;-73
2022/02/08 07:45:56;;;;;;;0.00;0.00;;;4.80;99.90;;;;;;5029874;28;20033;-81
2022/02/08 07:48:24;;;;;;;0.00;0.00;;;4.80;99.90;;;;;;5019782;28;20028;-72
2022/02/08 07:50:51;;;;;;;0.20;0.20;;;4.80;99.90;;;;;;5029458;28;20033;-82
2022/02/08 07:53:18;;;;;;;4.38;1.45;;;4.80;99.90;;;;;;5030868;28;20052;-72
2022/02/08 07:55:45;;;;;;;0.00;0.00;;;4.80;99.90;;;;;;5037687;28;20026;-72
2022/02/08 07:58:10;;;;;;;0.85;0.38;;;4.90;99.90;;;;;;5031687;28;20037;-81
2022/02/08 08:00:36;;;;;;;0.00;0.00;;;4.90;99.90;;;;;;5027805;28;20456;-72
2022/02/08 08:03:05;;;;;;;0.00;0.00;;;4.90;99.90;;;;;;5017807;28;20057;-73
2022/02/08 08:05:31;;;;;;;0.00;0.00;;;5.00;99.90;;;;;;5023683;28;20060;-72
2022/02/08 08:07:57;;;;;;;21.33;0.35;;;5.00;99.90;;;;;;5028383;28;20067;-81
2022/02/08 08:10:27;;;;;;;0.00;0.00;;;5.10;99.90;;;;;;5030290;28;20071;-81
2022/02/08 08:12:54;;;;;;;0.00;0.00;;;5.10;99.90;;;;;;5031086;28;20459;-72
2022/02/08 08:15:47;;;;;;;0.00;0.00;;;5.10;99.90;;;;;;5025663;28;20028;-82
2022/02/08 08:18:19;;;;;;;0.00;0.00;;;5.20;99.90;;;;;;5016339;28;20129;-82
2022/02/08 08:20:48;;;;;;;0.00;0.00;;;5.20;99.90;;;;;;5010510;28;20026;-73
2022/02/08 08:23:13;;;;;;;0.00;0.00;;;5.20;99.90;;;;;;5015383;28;20080;-72
2022/02/08 08:25:39;;;;;;;0.75;0.38;;;5.20;99.90;;;;;;5025308;28;20037;-80
2022/02/08 08:28:07;;;;;;;0.00;0.00;;;5.30;99.90;;;;;;5020066;28;20041;-82
2022/02/08 08:30:33;;;;;;;0.00;0.00;;;5.30;99.90;;;;;;5020100;28;20022;-71
2022/02/08 08:32:59;;;;;;;0.13;0.13;;;5.40;99.90;;;;;;5020694;28;20029;-71
2022/02/08 08:35:25;;;;;;;0.20;0.20;;;5.50;99.90;;;;;;5031196;28;20018;-72
2022/02/08 08:37:54;;;;;;;0.20;0.20;;;5.40;99.90;;;;;;5029917;28;20021;-72
2022/02/08 08:40:38;;;;;;;0.00;0.00;;;5.40;99.90;;;;;;5030538;28;20396;-81
2022/02/08 08:43:30;;;;;;;0.00;0.00;;;5.50;99.90;;;;;;5030754;28;20048;-81
2022/02/08 08:53:18;;;;;;;0.00;0.00;;;5.80;99.90;;;;;;5030451;28;20113;-80
2022/02/08 08:55:44;;;;;;;0.57;0.57;;;6.00;99.90;;;;;;5030790;28;20021;-72
2022/02/08 08:58:10;;;;;;;0.00;0.00;;;6.10;99.90;;;;;;5030783;28;20137;-81
2022/02/08 09:00:35;;;;;;;0.00;0.00;;;6.20;99.90;;;;;;5031081;28;20056;-72
2022/02/08 09:03:01;;;;;;;0.50;0.45;;;6.30;99.90;;;;;;5028452;28;20068;-81
2022/02/08 09:05:27;;;;;;;0.38;0.38;;;6.40;99.90;;;;;;5025839;28;20029;-72
2022/02/08 09:07:53;;;;;;;0.00;0.00;;;6.50;99.90;;;;;;5027625;28;20121;-72
2022/02/08 09:10:23;;;;;;;0.00;0.00;;;6.60;99.90;;;;;;5029568;28;20033;-81
2022/02/08 09:13:07;;;;;;;0.13;0.13;;;6.50;99.90;;;;;;5030515;28;20029;-72
2022/02/08 09:26:14;;;;;;;0.05;0.05;;;7.20;99.90;;;;;;5029005;28;20362;-81
2022/02/08 09:28:43;;;;;;;0.10;0.10;;;7.10;99.90;;;;;;5021685;28;20037;-73
2022/02/08 09:31:14;;;;;;;0.10;0.10;;;7.10;99.90;;;;;;5018398;28;20040;-72
2022/02/08 09:33:40;;;;;;;0.10;0.10;;;7.10;99.90;;;;;;5014590;28;20018;-72
2022/02/08 09:36:05;;;;;;;0.00;0.00;;;7.20;99.90;;;;;;5029572;28;20097;-72
2022/02/08 09:38:34;;;;;;;0.08;0.08;;;7.20;99.90;;;;;;5021578;28;20026;-73
2022/02/08 09:41:00;;;;;;;0.55;0.55;;;7.10;99.90;;;;;;5032749;28;20037;-72
2022/02/08 09:43:29;;;;;;;0.28;0.28;;;7.10;99.90;;;;;;5029295;28;20026;-72
2022/02/08 09:45:59;;;;;;;0.45;0.45;;;7.30;99.90;;;;;;5045582;28;20025;-72
2022/02/08 09:50:59;;;;;;;0.05;0.05;;;7.50;99.90;;;;;;5032160;28;20528;-81
2022/02/08 09:53:35;;;;;;;2.72;0.68;;;7.70;99.90;;;;;;5047286;28;20036;-72
2022/02/08 09:56:02;;;;;;;1.50;0.95;;;7.70;99.90;;;;;;5036550;28;20025;-72
2022/02/08 09:58:28;;;;;;;0.00;0.00;;;7.60;99.90;;;;;;5046842;28;20030;-72
2022/02/08 10:01:13;;;;;;;0.00;0.00;;;7.70;99.90;;;;;;5053478;28;20044;-76
2022/02/08 10:03:53;;;;;;;0.35;0.25;;;7.50;99.90;;;;;;5049512;28;20030;-81
2022/02/08 10:06:20;;;;;;;4.13;2.13;;;7.40;99.90;;;;;;5018442;28;20037;-81
2022/02/08 10:08:57;;;;;;;1.95;1.25;;;7.40;99.90;;;;;;5028641;28;20649;-74
2022/02/08 10:11:27;;;;;;;0.52;0.52;;;7.30;99.90;;;;;;5046290;28;20037;-72
2022/02/08 10:22:10;;;;;;;1.45;1.00;;;7.60;99.90;;;;;;5036931;28;20052;-72
2022/02/08 10:24:37;;;;;;;0.13;0.13;;;8.00;99.90;;;;;;5039477;28;20030;-81
2022/02/08 10:27:19;;;;;;;0.85;0.20;;;8.10;99.90;;;;;;5042939;28;20045;-80
2022/02/08 10:38:05;;;;;;;0.10;0.10;;;7.90;99.90;;;;;;5035343;28;20036;-81
2022/02/08 10:40:35;;;;;;;1.85;1.63;;;8.20;99.90;;;;;;5046043;28;20488;-74
2022/02/08 10:43:04;;;;;;;0.47;0.47;;;8.50;99.90;;;;;;5032413;28;20025;-81
2022/02/08 10:45:38;;;;;;;0.32;0.32;;;8.40;99.90;;;;;;5032682;28;20098;-72
2022/02/08 10:48:06;;;;;;;0.98;0.57;;;8.20;99.90;;;;;;5026599;28;20024;-82
2022/02/08 10:50:35;;;;;;;0.22;0.22;;;8.00;99.90;;;;;;5026271;28;20040;-81
2022/02/08 10:53:03;;;;;;;1.58;0.32;;;8.20;99.90;;;;;;5032728;28;20034;-81
2022/02/08 11:00:45;;;;;;;1.65;1.27;;;8.50;99.90;;;;;;5031662;28;20381;-81
2022/02/08 11:03:23;;;;;;;0.17;0.08;;;8.40;99.90;;;;;;5037074;28;20024;-72
2022/02/08 11:06:06;;;;;;;1.38;1.17;;;8.30;99.90;;;;;;5033900;28;20037;-72
2022/02/08 11:17:12;;;;;;;3.20;1.55;;;8.70;99.90;;;;;;5047820;28;20025;-72
2022/02/08 11:25:09;;;;;;;0.30;0.30;;;9.10;99.90;;;;;;5032442;28;20076;-80
2022/02/08 11:27:37;;;;;;;1.50;0.88;;;9.30;99.90;;;;;;5047045;28;20021;-81
2022/02/08 11:30:14;;;;;;;0.32;0.32;;;9.30;99.90;;;;;;5034703;28;20413;-82
2022/02/08 11:33:08;;;;;;;0.65;0.65;;;9.40;99.90;;;;;;5051342;28;20025;-81
2022/02/08 11:46:40;;;;;;;0.20;0.20;;;10.10;99.90;;;;;;5022385;28;20028;-72
2022/02/08 11:52:49;;;;;;;0.10;0.10;;;10.40;99.90;;;;;;5037487;28;20033;-73
2022/02/08 11:54:55;;;;;;;0.30;0.30;;;10.60;99.90;;;;;;5022668;28;20508;-72
2022/02/08 12:02:49;;;;;;;0.15;0.15;;;11.10;99.90;;;;;;5028767;28;20195;-82
2022/02/08 12:07:52;;;;;;;0.88;0.85;;;11.50;99.90;;;;;;5033104;28;20090;-82
2022/02/08 12:30:33;;;;;;;0.70;0.70;;;12.40;99.90;;;;;;5026185;28;20095;-73
2022/02/08 12:49:25;;;;;;;4.28;0.90;;;12.80;99.90;;;;;;5041951;28;20468;-81
2022/02/08 13:05:11;;;;;;;0.00;0.00;;;13.50;99.90;;;;;;5031027;28;20519;-74
2022/02/08 14:25:33;;;;;;;0.15;0.15;;;15.50;99.90;;;;;;5036403;28;20193;-81
2022/02/08 14:34:07;;;;;;;0.05;0.05;;;15.80;99.90;;;;;;5043037;28;20088;-73
2022/02/08 14:36:32;;;;;;;0.00;0.00;;;16.00;99.90;;;;;;5028804;28;20128;-82
2022/02/08 15:05:55;;;;;;;0.00;0.00;;;16.70;99.90;;;;;;5047421;28;20052;-74
2022/02/08 15:08:27;;;;;;;1.33;0.50;;;17.30;99.90;;;;;;5017579;28;20067;-75
2022/02/08 15:10:56;;;;;;;0.00;0.00;;;17.50;99.90;;;;;;5039540;28;20143;-73
2022/02/08 15:13:25;;;;;;;0.65;0.40;;;17.30;99.90;;;;;;5037837;28;20025;-73
2022/02/08 15:18:17;;;;;;;0.08;0.08;;;16.90;99.90;;;;;;5040674;28;20039;-73
2022/02/08 15:20:43;;;;;;;0.00;0.00;;;16.60;99.90;;;;;;5059919;28;20076;-74
2022/02/08 15:23:11;;;;;;;0.00;0.00;;;16.60;99.90;;;;;;5040831;28;20036;-82
2022/02/08 15:25:37;;;;;;;3.75;0.20;;;16.40;99.90;;;;;;5031982;28;20128;-83
2022/02/08 15:28:05;;;;;;;4.60;0.80;;;16.50;99.90;;;;;;5048010;28;20493;-73
2022/02/08 15:30:33;;;;;;;0.10;0.10;;;16.50;99.90;;;;;;5030082;28;20036;-73
2022/02/08 15:33:00;;;;;;;2.45;0.22;;;16.40;99.90;;;;;;5029876;28;20022;-82
2022/02/08 15:35:26;;;;;;;2.17;1.48;;;16.60;99.90;;;;;;5033233;28;20021;-73
2022/02/08 15:37:52;;;;;;;0.52;0.30;;;16.90;99.90;;;;;;5033589;28;20037;-73
2022/02/08 15:40:20;;;;;;;0.10;0.10;;;17.10;99.90;;;;;;5044233;28;20108;-81
2022/02/08 15:42:49;;;;;;;4.20;0.22;;;17.30;99.90;;;;;;5026178;28;20025;-81
2022/02/08 15:45:22;;;;;;;3.83;0.15;;;17.70;99.90;;;;;;5035227;28;20040;-81
2022/02/08 15:47:48;;;;;;;4.13;2.08;;;17.90;99.90;;;;;;5038604;28;20550;-82
2022/02/08 15:50:21;;;;;;;0.10;0.10;;;17.60;99.90;;;;;;5032026;28;20113;-82
2022/02/08 15:55:30;;;;;;;2.25;1.00;;;17.10;99.90;;;;;;5032774;28;19967;-72
2022/02/08 16:08:47;;;;;;;0.38;0.35;;;16.70;99.90;;;;;;5024900;28;20061;-81
2022/02/08 16:14:29;;;;;;;0.52;0.35;;;16.70;99.90;;;;;;5012662;28;20084;-72
2022/02/08 16:59:27;;;;;;;2.20;0.13;;;15.80;99.90;;;;;;5020768;28;20089;-81
2022/02/08 17:01:55;;;;;;;2.72;0.28;;;15.50;99.90;;;;;;5032426;28;20497;-81
2022/02/08 17:04:21;;;;;;;0.63;0.63;;;15.20;99.90;;;;;;5032200;28;20037;-72
2022/02/08 17:06:46;;;;;;;0.00;0.00;;;14.40;99.90;;;;;;5030840;28;20033;-72
2022/02/08 17:09:21;;;;;;;0.68;0.68;;;13.60;99.90;;;;;;5031647;28;20101;-72
2022/02/08 17:11:59;;;;;;;0.32;0.20;;;13.10;99.90;;;;;;5031449;28;20029;-81
2022/02/08 17:14:47;;;;;;;0.10;0.10;;;12.70;99.90;;;;;;5032481;28;20502;-72
2022/02/08 17:49:54;;;;;;;0.00;0.00;;;10.50;99.90;;;;;;5027030;28;20381;-72
2022/02/08 17:52:19;;;;;;;0.30;0.30;;;10.40;99.90;;;;;;5035438;28;20574;-72
2022/02/08 17:54:45;;;;;;;0.93;0.93;;;10.40;99.90;;;;;;5039138;28;20063;-72
2022/02/08 17:57:11;;;;;;;0.32;0.32;;;10.30;99.90;;;;;;5035521;28;20400;-72
2022/02/08 17:59:37;;;;;;;0.65;0.35;;;10.20;99.90;;;;;;5035530;28;20029;-81
2022/02/08 18:02:04;;;;;;;0.43;0.43;;;10.20;99.90;;;;;;5035337;28;20091;-72
2022/02/08 18:04:30;;;;;;;0.75;0.55;;;10.20;99.90;;;;;;5036031;28;20029;-78
2022/02/08 18:06:56;;;;;;;0.75;0.57;;;10.00;99.90;;;;;;5037373;28;20370;-77
2022/02/08 18:09:24;;;;;;;0.35;0.35;;;10.00;99.90;;;;;;5034798;28;20385;-73
2022/02/08 18:11:50;;;;;;;0.00;0.00;;;9.90;99.90;;;;;;5034794;28;20041;-72
2022/02/08 18:14:19;;;;;;;0.35;0.35;;;9.80;99.90;;;;;;5035150;28;20097;-72
2022/02/08 18:16:51;;;;;;;0.60;0.32;;;9.80;99.90;;;;;;5036642;28;20108;-72
2022/02/08 18:19:19;;;;;;;0.13;0.13;;;9.80;99.90;;;;;;5035081;28;20480;-71
2022/02/08 18:22:08;;;;;;;0.08;0.08;;;9.70;99.90;;;;;;5035174;28;20108;-72
2022/02/08 19:07:40;;;;;;;0.35;0.35;;;8.30;99.90;;;;;;5034328;28;20161;-79
2022/02/08 19:20:55;;;;;;;1.08;0.88;;;7.80;99.90;;;;;;5034172;28;20551;-71
2022/02/08 19:23:21;;;;;;;0.32;0.32;;;7.80;99.90;;;;;;5033939;28;20075;-71
2022/02/08 19:25:47;;;;;;;0.40;0.40;;;7.70;99.90;;;;;;5033750;28;20045;-71
2022/02/08 19:28:12;;;;;;;0.22;0.22;;;7.70;99.90;;;;;;5033732;28;20060;-71
2022/02/08 19:30:38;;;;;;;0.10;0.10;;;7.70;99.90;;;;;;5033326;28;20418;-80
2022/02/08 19:33:04;;;;;;;0.40;0.40;;;7.60;99.90;;;;;;5039101;28;20041;-72
2022/02/08 19:35:29;;;;;;;0.10;0.10;;;7.60;99.90;;;;;;5033783;28;20392;-80
2022/02/08 19:37:56;;;;;;;1.40;1.33;;;7.60;99.90;;;;;;5033441;28;20035;-80
2022/02/08 19:40:23;;;;;;;4.25;2.60;;;7.60;99.90;;;;;;5033645;28;20091;-71
2022/02/08 19:42:49;;;;;;;1.25;0.47;;;7.50;99.90;;;;;;5032735;28;20025;-71
2022/02/08 19:45:21;;;;;;;0.73;0.55;;;7.40;99.90;;;;;;5033832;28;20075;-80
2022/02/08 19:47:47;;;;;;;0.37;0.37;;;7.30;99.90;;;;;;5033593;28;20017;-73
2022/02/08 19:50:13;;;;;;;0.43;0.43;;;7.30;99.90;;;;;;5033008;28;20057;-71
2022/02/08 19:52:40;;;;;;;1.23;1.13;;;7.30;99.90;;;;;;5033678;28;20523;-80
2022/02/08 19:58:11;;;;;;;0.60;0.60;;;7.20;99.90;;;;;;5028290;28;20034;-72
2022/02/08 20:00:41;;;;;;;0.00;0.00;;;7.20;99.90;;;;;;5031638;28;20026;-80
2022/02/08 20:03:09;;;;;;;4.38;1.48;;;7.10;99.90;;;;;;5033160;28;20068;-71
2022/02/08 20:05:36;;;;;;;0.47;0.47;;;7.10;99.90;;;;;;5039210;28;20060;-71
2022/02/08 20:08:03;;;;;;;0.43;0.43;;;7.10;99.90;;;;;;5032921;28;20495;-72
2022/02/08 20:10:29;;;;;;;0.70;0.55;;;7.00;99.90;;;;;;5016002;28;20109;-72
2022/02/08 20:12:55;;;;;;;0.20;0.20;;;6.90;99.90;;;;;;5012627;28;20033;-71
2022/02/08 20:15:22;;;;;;;2.63;0.93;;;6.90;99.90;;;;;;5012632;28;20026;-80
2022/02/08 20:17:50;;;;;;;4.28;1.25;;;6.90;99.90;;;;;;5013375;28;20029;-71
2022/02/08 20:20:18;;;;;;;1.55;1.38;;;6.90;99.90;;;;;;5013416;28;20018;-80
2022/02/08 20:22:48;;;;;;;0.68;0.60;;;6.90;99.90;;;;;;5013113;28;20500;-71
2022/02/08 20:25:16;;;;;;;0.63;0.63;;;6.80;99.90;;;;;;5012508;28;20046;-80
2022/02/08 20:27:54;;;;;;;0.00;0.00;;;6.80;99.90;;;;;;5013140;28;20030;-80
2022/02/08 20:30:28;;;;;;;0.13;0.13;;;6.80;99.90;;;;;;5013301;28;20092;-71
2022/02/08 20:32:55;;;;;;;0.55;0.55;;;6.80;99.90;;;;;;5012414;28;20030;-71
2022/02/08 20:35:21;;;;;;;0.73;0.73;;;6.80;99.90;;;;;;5013299;28;20048;-71
2022/02/08 20:37:48;;;;;;;0.80;0.80;;;6.90;99.90;;;;;;5027827;28;20021;-80
2022/02/08 20:40:15;;;;;;;0.20;0.20;;;6.90;99.90;;;;;;5039505;28;20033;-72
2022/02/08 20:42:42;;;;;;;3.20;0.60;;;6.90;99.90;;;;;;5032530;28;20014;-72
2022/02/08 20:45:09;;;;;;;0.50;0.35;;;6.90;99.90;;;;;;5032187;28;20056;-80
2022/02/08 20:47:39;;;;;;;6.65;1.95;;;6.80;99.90;;;;;;5032580;28;20018;-80
2022/02/08 20:50:13;;;;;;;0.32;0.32;;;6.90;99.90;;;;;;5033169;28;20028;-72
2022/02/08 20:52:49;;;;;;;2.83;0.68;;;6.80;99.90;;;;;;5032477;28;20405;-80
2022/02/08 20:55:16;;;;;;;2.45;1.13;;;6.80;99.90;;;;;;5031791;28;20052;-71
2022/02/08 20:57:50;;;;;;;0.70;0.70;;;6.80;99.90;;;;;;5032698;28;20442;-80
2022/02/08 21:00:16;;;;;;;1.67;1.05;;;6.80;99.90;;;;;;5031888;28;20022;-71
2022/02/08 21:02:54;;;;;;;3.25;1.17;;;6.80;99.90;;;;;;5032658;28;20075;-80
2022/02/08 21:07:52;;;;;;;0.45;0.28;;;6.70;99.90;;;;;;5032560;28;20164;-80
2022/02/08 21:10:18;;;;;;;0.77;0.77;;;6.60;99.90;;;;;;5017349;28;20034;-80
2022/02/08 21:13:01;;;;;;;6.32;1.77;;;6.50;99.90;;;;;;5016293;28;20116;-80
2022/02/08 21:15:29;;;;;;;;;;;6.50;99.90;;;;;;5016612;28;20033;-80
2022/02/08 21:17:54;;;;;;;1.38;1.25;;;6.50;99.90;;;;;;5016538;28;20390;-71
2022/02/08 21:20:20;;;;;;;3.13;1.65;;;6.50;99.90;;;;;;5016734;28;20022;-80
2022/02/08 21:22:46;;;;;;;0.30;0.30;;;6.50;99.90;;;;;;5016409;28;20026;-80
2022/02/08 21:25:11;;;;;;;0.20;0.20;;;6.50;99.90;;;;;;5016235;28;20125;-72
2022/02/08 21:27:42;;;;;;;0.10;0.10;;;6.60;99.90;;;;;;5017382;28;20119;-71
2022/02/08 21:51:55;;;;;;;0.30;0.30;;;6.80;99.90;;;;;;5036184;28;20034;-71
2022/02/08 21:54:28;;;;;;;0.55;0.55;;;6.80;99.90;;;;;;5035062;28;20018;-71